sensor_id;sensor_type;location;lat;lon;timestamp;pressure;altitude;pressure_sealevel;temperature;humidity
60611;BME280;46439;51.164;13.572;2022-09-09T00:00:44;99656.50;;;15.99;90.24
60611;BME280;46439;51.164;13.572;2022-09-09T00:03:18;99657.02;;;15.98;90.15
60611;BME280;46439;51.164;13.572;2022-09-09T00:05:53;99661.81;;;16.00;90.14
60611;BME280;46439;51.164;13.572;2022-09-09T00:08:34;99661.79;;;16.03;90.24
60611;BME280;46439;51.164;13.572;2022-09-09T00:11:09;99661.70;;;16.02;90.44
60611;BME280;46439;51.164;13.572;2022-09-09T00:13:44;99659.45;;;16.01;90.35
60611;BME280;46439;51.164;13.572;2022-09-09T00:16:19;99660.04;;;16.03;90.46
60611;BME280;46439;51.164;13.572;2022-09-09T00:18:56;99661.41;;;16.03;90.47
60611;BME280;46439;51.164;13.572;2022-09-09T00:21:33;99660.12;;;16.02;90.34
60611;BME280;46439;51.164;13.572;2022-09-09T00:24:07;99658.39;;;16.03;90.39
60611;BME280;46439;51.164;13.572;2022-09-09T00:26:40;99659.00;;;16.00;90.37
60611;BME280;46439;51.164;13.572;2022-09-09T00:29:18;99660.86;;;15.97;90.30
60611;BME280;46439;51.164;13.572;2022-09-09T00:31:49;99659.15;;;15.98;90.31
60611;BME280;46439;51.164;13.572;2022-09-09T00:34:23;99657.57;;;15.96;90.32
60611;BME280;46439;51.164;13.572;2022-09-09T00:36:53;99652.23;;;15.93;90.11
60611;BME280;46439;51.164;13.572;2022-09-09T00:39:27;99650.48;;;15.93;90.24
60611;BME280;46439;51.164;13.572;2022-09-09T00:42:11;99649.05;;;15.93;90.28
60611;BME280;46439;51.164;13.572;2022-09-09T00:44:56;99651.52;;;15.93;90.30
60611;BME280;46439;51.164;13.572;2022-09-09T00:47:42;99654.42;;;15.93;90.37
60611;BME280;46439;51.164;13.572;2022-09-09T00:50:21;99652.88;;;15.97;90.55
60611;BME280;46439;51.164;13.572;2022-09-09T00:53:02;99650.56;;;15.98;90.60
60611;BME280;46439;51.164;13.572;2022-09-09T00:55:41;99655.38;;;15.97;90.68
60611;BME280;46439;51.164;13.572;2022-09-09T00:58:13;99650.08;;;15.94;90.47
60611;BME280;46439;51.164;13.572;2022-09-09T01:00:44;99650.90;;;15.91;90.39
60611;BME280;46439;51.164;13.572;2022-09-09T01:03:25;99652.76;;;15.90;90.45
60611;BME280;46439;51.164;13.572;2022-09-09T01:06:02;99651.42;;;15.88;90.28
60611;BME280;46439;51.164;13.572;2022-09-09T01:08:48;99650.67;;;15.88;90.32
60611;BME280;46439;51.164;13.572;2022-09-09T01:11:25;99656.70;;;15.90;90.44
60611;BME280;46439;51.164;13.572;2022-09-09T01:14:00;99656.43;;;15.91;90.60
60611;BME280;46439;51.164;13.572;2022-09-09T01:16:30;99655.45;;;15.89;90.64
60611;BME280;46439;51.164;13.572;2022-09-09T01:19:01;99654.30;;;15.85;90.44
60611;BME280;46439;51.164;13.572;2022-09-09T01:21:39;99655.77;;;15.85;90.45
60611;BME280;46439;51.164;13.572;2022-09-09T01:24:24;99650.62;;;15.85;90.58
60611;BME280;46439;51.164;13.572;2022-09-09T01:26:57;99654.77;;;15.85;90.48
60611;BME280;46439;51.164;13.572;2022-09-09T01:29:28;99654.14;;;15.84;90.37
60611;BME280;46439;51.164;13.572;2022-09-09T01:31:58;99655.67;;;15.85;90.63
60611;BME280;46439;51.164;13.572;2022-09-09T01:34:30;99657.30;;;15.82;90.60
60611;BME280;46439;51.164;13.572;2022-09-09T01:37:03;99659.10;;;15.83;90.48
60611;BME280;46439;51.164;13.572;2022-09-09T01:39:34;99655.91;;;15.83;90.49
60611;BME280;46439;51.164;13.572;2022-09-09T01:42:06;99652.61;;;15.82;90.58
60611;BME280;46439;51.164;13.572;2022-09-09T01:44:38;99657.29;;;15.82;90.48
60611;BME280;46439;51.164;13.572;2022-09-09T01:47:06;99655.80;;;15.85;90.57
60611;BME280;46439;51.164;13.572;2022-09-09T01:49:35;99655.64;;;15.84;90.62
60611;BME280;46439;51.164;13.572;2022-09-09T01:52:04;99647.37;;;15.81;90.59
60611;BME280;46439;51.164;13.572;2022-09-09T01:54:33;99648.45;;;15.82;90.34
60611;BME280;46439;51.164;13.572;2022-09-09T01:57:13;99648.73;;;15.85;90.63
60611;BME280;46439;51.164;13.572;2022-09-09T01:59:52;99645.61;;;15.88;90.82
60611;BME280;46439;51.164;13.572;2022-09-09T02:02:25;99643.36;;;15.86;90.63
60611;BME280;46439;51.164;13.572;2022-09-09T02:05:01;99641.20;;;15.80;90.53
60611;BME280;46439;51.164;13.572;2022-09-09T02:07:40;99641.73;;;15.76;90.33
60611;BME280;46439;51.164;13.572;2022-09-09T02:10:19;99640.96;;;15.75;90.33
60611;BME280;46439;51.164;13.572;2022-09-09T02:12:51;99641.11;;;15.70;90.28
60611;BME280;46439;51.164;13.572;2022-09-09T02:15:32;99636.98;;;15.61;90.11
60611;BME280;46439;51.164;13.572;2022-09-09T02:18:06;99642.32;;;15.50;89.79
60611;BME280;46439;51.164;13.572;2022-09-09T02:20:38;99647.46;;;15.45;89.65
60611;BME280;46439;51.164;13.572;2022-09-09T02:23:07;99646.08;;;15.44;89.72
60611;BME280;46439;51.164;13.572;2022-09-09T02:25:38;99646.65;;;15.46;89.97
60611;BME280;46439;51.164;13.572;2022-09-09T02:28:09;99645.86;;;15.47;90.15
60611;BME280;46439;51.164;13.572;2022-09-09T02:30:39;99643.55;;;15.46;90.17
60611;BME280;46439;51.164;13.572;2022-09-09T02:33:10;99643.80;;;15.42;90.00
60611;BME280;46439;51.164;13.572;2022-09-09T02:35:41;99649.09;;;15.37;89.93
60611;BME280;46439;51.164;13.572;2022-09-09T02:38:13;99648.19;;;15.34;89.80
60611;BME280;46439;51.164;13.572;2022-09-09T02:40:43;99649.04;;;15.32;89.81
60611;BME280;46439;51.164;13.572;2022-09-09T02:43:11;99647.35;;;15.26;89.82
60611;BME280;46439;51.164;13.572;2022-09-09T02:45:51;99647.23;;;15.23;89.72
60611;BME280;46439;51.164;13.572;2022-09-09T02:48:25;99644.73;;;15.24;89.79
60611;BME280;46439;51.164;13.572;2022-09-09T02:51:01;99647.09;;;15.20;89.85
60611;BME280;46439;51.164;13.572;2022-09-09T02:53:42;99651.37;;;15.15;89.73
60611;BME280;46439;51.164;13.572;2022-09-09T02:56:16;99648.94;;;15.08;89.69
60611;BME280;46439;51.164;13.572;2022-09-09T02:58:45;99652.36;;;14.99;89.36
60611;BME280;46439;51.164;13.572;2022-09-09T03:01:14;99650.20;;;14.94;89.18
60611;BME280;46439;51.164;13.572;2022-09-09T03:03:42;99655.41;;;14.90;89.14
60611;BME280;46439;51.164;13.572;2022-09-09T03:06:12;99653.30;;;14.82;88.97
60611;BME280;46439;51.164;13.572;2022-09-09T03:08:42;99651.90;;;14.76;88.86
60611;BME280;46439;51.164;13.572;2022-09-09T03:11:12;99652.32;;;14.77;89.14
60611;BME280;46439;51.164;13.572;2022-09-09T03:13:42;99654.61;;;14.76;89.19
60611;BME280;46439;51.164;13.572;2022-09-09T03:16:10;99655.92;;;14.72;89.11
60611;BME280;46439;51.164;13.572;2022-09-09T03:18:39;99655.19;;;14.67;89.03
60611;BME280;46439;51.164;13.572;2022-09-09T03:21:07;99653.77;;;14.64;89.00
60611;BME280;46439;51.164;13.572;2022-09-09T03:23:36;99650.48;;;14.66;89.31
60611;BME280;46439;51.164;13.572;2022-09-09T03:26:04;99650.46;;;14.66;89.34
60611;BME280;46439;51.164;13.572;2022-09-09T03:28:33;99651.67;;;14.65;89.25
60611;BME280;46439;51.164;13.572;2022-09-09T03:31:02;99652.27;;;14.65;89.28
60611;BME280;46439;51.164;13.572;2022-09-09T03:33:32;99650.14;;;14.63;89.30
60611;BME280;46439;51.164;13.572;2022-09-09T03:36:01;99646.27;;;14.67;89.48
60611;BME280;46439;51.164;13.572;2022-09-09T03:38:32;99642.59;;;14.70;89.67
60611;BME280;46439;51.164;13.572;2022-09-09T03:41:02;99645.56;;;14.70;89.82
60611;BME280;46439;51.164;13.572;2022-09-09T03:43:30;99650.20;;;14.70;89.73
60611;BME280;46439;51.164;13.572;2022-09-09T03:45:59;99644.59;;;14.70;89.79
60611;BME280;46439;51.164;13.572;2022-09-09T03:48:28;99651.29;;;14.70;89.70
60611;BME280;46439;51.164;13.572;2022-09-09T03:50:57;99650.27;;;14.71;89.79
60611;BME280;46439;51.164;13.572;2022-09-09T03:53:30;99650.08;;;14.71;89.78
60611;BME280;46439;51.164;13.572;2022-09-09T03:55:58;99645.93;;;14.71;89.78
60611;BME280;46439;51.164;13.572;2022-09-09T03:58:31;99649.79;;;14.72;89.83
60611;BME280;46439;51.164;13.572;2022-09-09T04:01:02;99647.30;;;14.74;89.91
60611;BME280;46439;51.164;13.572;2022-09-09T04:03:33;99645.58;;;14.76;90.01
60611;BME280;46439;51.164;13.572;2022-09-09T04:06:03;99644.96;;;14.75;90.15
60611;BME280;46439;51.164;13.572;2022-09-09T04:08:32;99644.94;;;14.70;89.81
60611;BME280;46439;51.164;13.572;2022-09-09T04:11:02;99645.66;;;14.61;89.56
60611;BME280;46439;51.164;13.572;2022-09-09T04:13:33;99648.95;;;14.53;89.28
60611;BME280;46439;51.164;13.572;2022-09-09T04:16:03;99655.14;;;14.54;89.28
60611;BME280;46439;51.164;13.572;2022-09-09T04:18:32;99657.65;;;14.53;89.48
60611;BME280;46439;51.164;13.572;2022-09-09T04:21:01;99657.83;;;14.52;89.48
60611;BME280;46439;51.164;13.572;2022-09-09T04:23:29;99660.88;;;14.51;89.54
60611;BME280;46439;51.164;13.572;2022-09-09T04:26:00;99663.54;;;14.52;89.61
60611;BME280;46439;51.164;13.572;2022-09-09T04:28:31;99661.71;;;14.55;89.68
60611;BME280;46439;51.164;13.572;2022-09-09T04:31:05;99655.95;;;14.55;89.77
60611;BME280;46439;51.164;13.572;2022-09-09T04:33:34;99654.21;;;14.55;89.79
60611;BME280;46439;51.164;13.572;2022-09-09T04:36:04;99649.25;;;14.54;89.74
60611;BME280;46439;51.164;13.572;2022-09-09T04:38:32;99652.67;;;14.53;89.68
60611;BME280;46439;51.164;13.572;2022-09-09T04:41:03;99651.73;;;14.56;89.73
60611;BME280;46439;51.164;13.572;2022-09-09T04:43:32;99652.61;;;14.58;89.87
60611;BME280;46439;51.164;13.572;2022-09-09T04:46:00;99651.14;;;14.57;89.83
60611;BME280;46439;51.164;13.572;2022-09-09T04:48:29;99654.00;;;14.54;89.71
60611;BME280;46439;51.164;13.572;2022-09-09T04:51:00;99663.46;;;14.58;89.89
60611;BME280;46439;51.164;13.572;2022-09-09T04:53:29;99665.06;;;14.65;90.06
60611;BME280;46439;51.164;13.572;2022-09-09T04:56:04;99664.52;;;14.67;90.28
60611;BME280;46439;51.164;13.572;2022-09-09T04:58:34;99663.63;;;14.69;90.32
60611;BME280;46439;51.164;13.572;2022-09-09T05:01:07;99662.08;;;14.72;90.33
60611;BME280;46439;51.164;13.572;2022-09-09T05:03:36;99656.18;;;14.73;90.22
60611;BME280;46439;51.164;13.572;2022-09-09T05:06:08;99657.55;;;14.71;90.07
60611;BME280;46439;51.164;13.572;2022-09-09T05:08:38;99657.55;;;14.77;90.20
60611;BME280;46439;51.164;13.572;2022-09-09T05:11:14;99660.65;;;14.84;90.53
60611;BME280;46439;51.164;13.572;2022-09-09T05:13:45;99660.59;;;14.89;90.69
60611;BME280;46439;51.164;13.572;2022-09-09T05:16:14;99658.83;;;14.97;90.70
60611;BME280;46439;51.164;13.572;2022-09-09T05:18:47;99660.79;;;15.05;91.05
60611;BME280;46439;51.164;13.572;2022-09-09T05:21:17;99658.59;;;15.11;91.09
60611;BME280;46439;51.164;13.572;2022-09-09T05:23:47;99666.59;;;15.19;91.30
60611;BME280;46439;51.164;13.572;2022-09-09T05:26:18;99670.34;;;15.24;91.28
60611;BME280;46439;51.164;13.572;2022-09-09T05:28:47;99672.60;;;15.29;91.44
60611;BME280;46439;51.164;13.572;2022-09-09T05:31:21;99678.98;;;15.35;91.44
60611;BME280;46439;51.164;13.572;2022-09-09T05:33:56;99679.95;;;15.40;91.42
60611;BME280;46439;51.164;13.572;2022-09-09T05:36:24;99684.78;;;15.46;91.59
60611;BME280;46439;51.164;13.572;2022-09-09T05:38:53;99689.31;;;15.52;91.56
60611;BME280;46439;51.164;13.572;2022-09-09T05:41:24;99687.73;;;15.58;91.56
60611;BME280;46439;51.164;13.572;2022-09-09T05:43:52;99688.77;;;15.66;91.69
60611;BME280;46439;51.164;13.572;2022-09-09T05:46:22;99691.34;;;15.73;91.90
60611;BME280;46439;51.164;13.572;2022-09-09T05:48:51;99694.80;;;15.79;91.80
60611;BME280;46439;51.164;13.572;2022-09-09T05:51:22;99697.47;;;15.86;91.87
60611;BME280;46439;51.164;13.572;2022-09-09T05:53:52;99692.83;;;15.91;91.97
60611;BME280;46439;51.164;13.572;2022-09-09T05:56:22;99692.89;;;15.95;92.01
60611;BME280;46439;51.164;13.572;2022-09-09T05:58:52;99697.48;;;16.00;91.96
60611;BME280;46439;51.164;13.572;2022-09-09T06:01:25;99698.38;;;16.06;92.12
60611;BME280;46439;51.164;13.572;2022-09-09T06:03:54;99697.02;;;16.14;92.13
60611;BME280;46439;51.164;13.572;2022-09-09T06:06:24;99703.00;;;16.20;92.27
60611;BME280;46439;51.164;13.572;2022-09-09T06:08:55;99701.47;;;16.27;92.46
60611;BME280;46439;51.164;13.572;2022-09-09T06:11:27;99701.91;;;16.34;92.39
60611;BME280;46439;51.164;13.572;2022-09-09T06:13:55;99703.43;;;16.39;92.69
60611;BME280;46439;51.164;13.572;2022-09-09T06:16:26;99705.31;;;16.45;92.54
60611;BME280;46439;51.164;13.572;2022-09-09T06:18:57;99706.55;;;16.47;92.58
60611;BME280;46439;51.164;13.572;2022-09-09T06:21:28;99707.80;;;16.50;92.60
60611;BME280;46439;51.164;13.572;2022-09-09T06:23:58;99705.65;;;16.54;92.43
60611;BME280;46439;51.164;13.572;2022-09-09T06:26:28;99704.60;;;16.57;92.45
60611;BME280;46439;51.164;13.572;2022-09-09T06:28:59;99704.38;;;16.63;92.62
60611;BME280;46439;51.164;13.572;2022-09-09T06:31:28;99706.76;;;16.68;92.60
60611;BME280;46439;51.164;13.572;2022-09-09T06:34:03;99706.98;;;16.74;92.69
60611;BME280;46439;51.164;13.572;2022-09-09T06:36:33;99707.52;;;16.81;92.79
60611;BME280;46439;51.164;13.572;2022-09-09T06:39:02;99707.70;;;16.86;92.92
60611;BME280;46439;51.164;13.572;2022-09-09T06:41:32;99711.52;;;16.89;92.69
60611;BME280;46439;51.164;13.572;2022-09-09T06:44:01;99709.16;;;16.98;92.88
60611;BME280;46439;51.164;13.572;2022-09-09T06:46:30;99707.17;;;17.07;92.92
60611;BME280;46439;51.164;13.572;2022-09-09T06:49:01;99706.10;;;17.17;92.97
60611;BME280;46439;51.164;13.572;2022-09-09T06:51:32;99705.28;;;17.28;93.13
60611;BME280;46439;51.164;13.572;2022-09-09T06:54:03;99702.71;;;17.39;93.29
60611;BME280;46439;51.164;13.572;2022-09-09T06:56:33;99698.70;;;17.48;93.36
60611;BME280;46439;51.164;13.572;2022-09-09T06:59:04;99701.45;;;17.53;93.21
60611;BME280;46439;51.164;13.572;2022-09-09T07:01:35;99701.90;;;17.56;93.13
60611;BME280;46439;51.164;13.572;2022-09-09T07:04:05;99704.62;;;17.57;92.99
60611;BME280;46439;51.164;13.572;2022-09-09T07:06:37;99705.03;;;17.58;92.67
60611;BME280;46439;51.164;13.572;2022-09-09T07:09:08;99702.52;;;17.62;92.65
60611;BME280;46439;51.164;13.572;2022-09-09T07:11:39;99697.73;;;17.66;92.67
60611;BME280;46439;51.164;13.572;2022-09-09T07:14:09;99694.57;;;17.73;92.71
60611;BME280;46439;51.164;13.572;2022-09-09T07:16:42;99696.38;;;17.83;92.82
60611;BME280;46439;51.164;13.572;2022-09-09T07:19:11;99700.20;;;17.93;92.90
60611;BME280;46439;51.164;13.572;2022-09-09T07:21:40;99700.67;;;18.05;93.10
60611;BME280;46439;51.164;13.572;2022-09-09T07:24:09;99701.03;;;18.12;93.03
60611;BME280;46439;51.164;13.572;2022-09-09T07:26:39;99695.79;;;18.17;93.14
60611;BME280;46439;51.164;13.572;2022-09-09T07:29:08;99702.73;;;18.24;93.04
60611;BME280;46439;51.164;13.572;2022-09-09T07:31:38;99699.34;;;18.33;93.01
60611;BME280;46439;51.164;13.572;2022-09-09T07:34:07;99703.46;;;18.40;93.07
60611;BME280;46439;51.164;13.572;2022-09-09T07:36:37;99706.00;;;18.48;93.03
60611;BME280;46439;51.164;13.572;2022-09-09T07:39:08;99709.28;;;18.57;93.13
60611;BME280;46439;51.164;13.572;2022-09-09T07:41:39;99707.40;;;18.66;93.26
60611;BME280;46439;51.164;13.572;2022-09-09T07:44:09;99709.52;;;18.74;93.26
60611;BME280;46439;51.164;13.572;2022-09-09T07:46:40;99710.12;;;18.84;93.29
60611;BME280;46439;51.164;13.572;2022-09-09T07:49:10;99713.27;;;18.92;93.32
60611;BME280;46439;51.164;13.572;2022-09-09T07:51:44;99708.38;;;18.96;93.26
60611;BME280;46439;51.164;13.572;2022-09-09T07:54:15;99711.34;;;19.04;93.24
60611;BME280;46439;51.164;13.572;2022-09-09T07:56:44;99714.14;;;19.12;93.24
60611;BME280;46439;51.164;13.572;2022-09-09T07:59:12;99716.81;;;19.19;93.26
60611;BME280;46439;51.164;13.572;2022-09-09T08:01:42;99721.55;;;19.28;93.31
60611;BME280;46439;51.164;13.572;2022-09-09T08:04:13;99720.01;;;19.39;93.40
60611;BME280;46439;51.164;13.572;2022-09-09T08:06:45;99721.54;;;19.49;93.48
60611;BME280;46439;51.164;13.572;2022-09-09T08:09:14;99719.77;;;19.57;93.40
60611;BME280;46439;51.164;13.572;2022-09-09T08:11:43;99723.24;;;19.64;93.45
60611;BME280;46439;51.164;13.572;2022-09-09T08:14:12;99724.73;;;19.67;93.25
60611;BME280;46439;51.164;13.572;2022-09-09T08:16:45;99721.08;;;19.71;93.07
60611;BME280;46439;51.164;13.572;2022-09-09T08:19:14;99722.19;;;19.79;93.12
60611;BME280;46439;51.164;13.572;2022-09-09T08:21:44;99722.80;;;19.85;93.04
60611;BME280;46439;51.164;13.572;2022-09-09T08:24:13;99726.49;;;19.92;93.03
60611;BME280;46439;51.164;13.572;2022-09-09T08:26:47;99731.45;;;20.02;93.20
60611;BME280;46439;51.164;13.572;2022-09-09T08:29:17;99731.38;;;20.11;93.25
60611;BME280;46439;51.164;13.572;2022-09-09T08:31:47;99736.80;;;20.20;93.31
60611;BME280;46439;51.164;13.572;2022-09-09T08:34:16;99736.63;;;20.30;93.35
60611;BME280;46439;51.164;13.572;2022-09-09T08:36:47;99738.73;;;20.37;93.39
60611;BME280;46439;51.164;13.572;2022-09-09T08:39:17;99740.73;;;20.45;93.31
60611;BME280;46439;51.164;13.572;2022-09-09T08:42:00;99742.28;;;20.53;93.37
60611;BME280;46439;51.164;13.572;2022-09-09T08:44:53;99741.35;;;20.60;93.31
60611;BME280;46439;51.164;13.572;2022-09-09T08:47:28;99741.50;;;20.65;93.30
60611;BME280;46439;51.164;13.572;2022-09-09T08:50:07;99745.10;;;20.67;93.14
60611;BME280;46439;51.164;13.572;2022-09-09T08:52:49;99748.36;;;20.72;93.08
60611;BME280;46439;51.164;13.572;2022-09-09T08:55:28;99751.03;;;20.75;92.98
60611;BME280;46439;51.164;13.572;2022-09-09T08:58:08;99752.06;;;20.78;92.90
60611;BME280;46439;51.164;13.572;2022-09-09T09:00:44;99756.08;;;20.82;92.94
60611;BME280;46439;51.164;13.572;2022-09-09T09:03:22;99761.51;;;20.81;92.85
60611;BME280;46439;51.164;13.572;2022-09-09T09:05:59;99768.23;;;20.79;92.70
60611;BME280;46439;51.164;13.572;2022-09-09T09:08:35;99767.80;;;20.76;92.55
60611;BME280;46439;51.164;13.572;2022-09-09T09:11:06;99765.80;;;20.75;92.50
60611;BME280;46439;51.164;13.572;2022-09-09T09:13:38;99763.80;;;20.74;92.37
60611;BME280;46439;51.164;13.572;2022-09-09T09:16:17;99769.02;;;20.74;92.50
60611;BME280;46439;51.164;13.572;2022-09-09T09:18:47;99773.92;;;20.72;92.19
60611;BME280;46439;51.164;13.572;2022-09-09T09:21:19;99775.17;;;20.71;92.08
60611;BME280;46439;51.164;13.572;2022-09-09T09:23:56;99782.86;;;20.71;92.11
60611;BME280;46439;51.164;13.572;2022-09-09T09:26:28;99781.38;;;20.71;92.11
60611;BME280;46439;51.164;13.572;2022-09-09T09:29:00;99783.54;;;20.69;92.11
60611;BME280;46439;51.164;13.572;2022-09-09T09:31:31;99779.56;;;20.68;91.98
60611;BME280;46439;51.164;13.572;2022-09-09T09:34:00;99774.69;;;20.72;92.07
60611;BME280;46439;51.164;13.572;2022-09-09T09:36:39;99774.60;;;20.73;92.08
60611;BME280;46439;51.164;13.572;2022-09-09T09:39:09;99774.88;;;20.73;91.99
60611;BME280;46439;51.164;13.572;2022-09-09T09:41:41;99774.80;;;20.72;91.96
60611;BME280;46439;51.164;13.572;2022-09-09T09:44:25;99767.92;;;20.74;91.88
60611;BME280;46439;51.164;13.572;2022-09-09T09:47:04;99765.09;;;20.79;91.93
60611;BME280;46439;51.164;13.572;2022-09-09T09:49:33;99765.52;;;20.82;91.88
60611;BME280;46439;51.164;13.572;2022-09-09T09:52:04;99763.80;;;20.74;91.57
60611;BME280;46439;51.164;13.572;2022-09-09T09:54:37;99761.45;;;20.64;91.25
60611;BME280;46439;51.164;13.572;2022-09-09T09:57:11;99761.23;;;20.61;91.20
60611;BME280;46439;51.164;13.572;2022-09-09T09:59:40;99757.48;;;20.70;91.54
60611;BME280;46439;51.164;13.572;2022-09-09T10:02:17;99759.03;;;20.81;91.89
60611;BME280;46439;51.164;13.572;2022-09-09T10:04:47;99763.16;;;20.89;92.15
60611;BME280;46439;51.164;13.572;2022-09-09T10:07:19;99762.40;;;20.94;92.10
60611;BME280;46439;51.164;13.572;2022-09-09T10:09:52;99756.63;;;20.89;91.81
60611;BME280;46439;51.164;13.572;2022-09-09T10:12:32;99747.71;;;20.83;91.47
60611;BME280;46439;51.164;13.572;2022-09-09T10:15:11;99741.66;;;20.79;91.31
60611;BME280;46439;51.164;13.572;2022-09-09T10:17:51;99741.05;;;20.75;91.18
60611;BME280;46439;51.164;13.572;2022-09-09T10:20:32;99734.20;;;20.71;91.06
60611;BME280;46439;51.164;13.572;2022-09-09T10:23:12;99735.30;;;20.75;91.01
60611;BME280;46439;51.164;13.572;2022-09-09T10:25:58;99736.83;;;20.82;91.19
60611;BME280;46439;51.164;13.572;2022-09-09T10:28:42;99740.62;;;20.98;91.63
60611;BME280;46439;51.164;13.572;2022-09-09T10:31:31;99741.97;;;21.12;92.05
60611;BME280;46439;51.164;13.572;2022-09-09T10:34:10;99741.59;;;21.24;92.28
60611;BME280;46439;51.164;13.572;2022-09-09T10:36:46;99741.48;;;21.38;92.56
60611;BME280;46439;51.164;13.572;2022-09-09T10:39:32;99742.63;;;21.49;92.62
60611;BME280;46439;51.164;13.572;2022-09-09T10:42:06;99736.98;;;21.59;92.61
60611;BME280;46439;51.164;13.572;2022-09-09T10:44:46;99730.79;;;21.64;92.43
60611;BME280;46439;51.164;13.572;2022-09-09T10:47:30;99735.55;;;21.78;92.52
60611;BME280;46439;51.164;13.572;2022-09-09T10:50:22;99730.62;;;21.89;92.70
60611;BME280;46439;51.164;13.572;2022-09-09T10:53:02;99723.67;;;21.98;92.63
60611;BME280;46439;51.164;13.572;2022-09-09T10:55:39;99714.09;;;22.08;92.64
60611;BME280;46439;51.164;13.572;2022-09-09T10:58:14;99712.62;;;22.16;92.65
60611;BME280;46439;51.164;13.572;2022-09-09T11:00:46;99704.62;;;22.20;92.41
60611;BME280;46439;51.164;13.572;2022-09-09T11:03:20;99698.66;;;22.28;92.56
60611;BME280;46439;51.164;13.572;2022-09-09T11:05:53;99697.09;;;22.36;92.65
60611;BME280;46439;51.164;13.572;2022-09-09T11:08:26;99693.40;;;22.43;92.53
60611;BME280;46439;51.164;13.572;2022-09-09T11:11:02;99695.73;;;22.54;92.71
60611;BME280;46439;51.164;13.572;2022-09-09T11:13:38;99698.45;;;22.64;92.76
60611;BME280;46439;51.164;13.572;2022-09-09T11:16:19;99698.41;;;22.75;92.86
60611;BME280;46439;51.164;13.572;2022-09-09T11:18:51;99695.75;;;22.82;92.85
60611;BME280;46439;51.164;13.572;2022-09-09T11:21:28;99689.96;;;22.88;92.40
60611;BME280;46439;51.164;13.572;2022-09-09T11:24:01;99691.73;;;22.98;92.64
60611;BME280;46439;51.164;13.572;2022-09-09T11:26:36;99691.64;;;23.08;92.67
60611;BME280;46439;51.164;13.572;2022-09-09T11:29:18;99692.11;;;23.16;92.51
60611;BME280;46439;51.164;13.572;2022-09-09T11:32:00;99687.69;;;23.26;92.86
60611;BME280;46439;51.164;13.572;2022-09-09T11:34:44;99681.38;;;23.33;92.64
60611;BME280;46439;51.164;13.572;2022-09-09T11:37:45;99678.95;;;23.44;92.53
60611;BME280;46439;51.164;13.572;2022-09-09T11:40:21;99672.91;;;23.56;92.57
60611;BME280;46439;51.164;13.572;2022-09-09T11:43:03;99676.37;;;23.69;92.60
60611;BME280;46439;51.164;13.572;2022-09-09T11:45:31;99669.96;;;23.73;92.52
60611;BME280;46439;51.164;13.572;2022-09-09T11:48:02;99668.09;;;23.71;92.41
60611;BME280;46439;51.164;13.572;2022-09-09T11:50:36;99669.08;;;23.68;92.25
60611;BME280;46439;51.164;13.572;2022-09-09T11:53:20;99674.16;;;23.66;92.02
60611;BME280;46439;51.164;13.572;2022-09-09T11:56:02;99680.77;;;23.63;91.85
60611;BME280;46439;51.164;13.572;2022-09-09T11:58:36;99686.23;;;23.54;91.49
60611;BME280;46439;51.164;13.572;2022-09-09T12:01:16;99683.36;;;23.49;91.14
60611;BME280;46439;51.164;13.572;2022-09-09T12:04:01;99685.02;;;23.50;91.13
60611;BME280;46439;51.164;13.572;2022-09-09T12:06:41;99682.19;;;23.61;91.34
60611;BME280;46439;51.164;13.572;2022-09-09T12:09:18;99682.82;;;23.71;91.52
60611;BME280;46439;51.164;13.572;2022-09-09T12:11:47;99681.55;;;23.77;91.25
60611;BME280;46439;51.164;13.572;2022-09-09T12:14:23;99683.70;;;23.83;91.29
60611;BME280;46439;51.164;13.572;2022-09-09T12:17:15;99674.44;;;23.91;91.35
60611;BME280;46439;51.164;13.572;2022-09-09T12:19:46;99667.89;;;23.98;91.25
60611;BME280;46439;51.164;13.572;2022-09-09T12:22:23;99670.36;;;24.04;91.28
60611;BME280;46439;51.164;13.572;2022-09-09T12:24:58;99667.16;;;24.03;90.93
60611;BME280;46439;51.164;13.572;2022-09-09T12:27:33;99659.55;;;24.06;91.08
60611;BME280;46439;51.164;13.572;2022-09-09T12:30:10;99648.30;;;24.11;90.88
60611;BME280;46439;51.164;13.572;2022-09-09T12:32:40;99641.48;;;24.15;90.92
60611;BME280;46439;51.164;13.572;2022-09-09T12:35:14;99636.13;;;24.21;90.87
60611;BME280;46439;51.164;13.572;2022-09-09T12:37:54;99639.59;;;24.27;91.04
60611;BME280;46439;51.164;13.572;2022-09-09T12:40:27;99636.55;;;24.33;90.80
60611;BME280;46439;51.164;13.572;2022-09-09T12:42:56;99641.80;;;24.33;90.80
60611;BME280;46439;51.164;13.572;2022-09-09T12:45:26;99648.13;;;24.37;90.53
60611;BME280;46439;51.164;13.572;2022-09-09T12:47:58;99657.38;;;24.38;90.63
60611;BME280;46439;51.164;13.572;2022-09-09T12:50:31;99660.70;;;24.41;90.53
60611;BME280;46439;51.164;13.572;2022-09-09T12:53:00;99661.97;;;24.49;90.70
60611;BME280;46439;51.164;13.572;2022-09-09T12:55:32;99656.67;;;24.41;90.41
60611;BME280;46439;51.164;13.572;2022-09-09T12:58:04;99657.63;;;24.37;90.07
60611;BME280;46439;51.164;13.572;2022-09-09T13:00:34;99656.63;;;24.42;90.23
60611;BME280;46439;51.164;13.572;2022-09-09T13:03:14;99653.91;;;24.52;90.26
60611;BME280;46439;51.164;13.572;2022-09-09T13:05:44;99648.28;;;24.67;90.52
60611;BME280;46439;51.164;13.572;2022-09-09T13:08:15;99641.19;;;24.74;90.52
60611;BME280;46439;51.164;13.572;2022-09-09T13:10:51;99638.13;;;24.82;90.31
60611;BME280;46439;51.164;13.572;2022-09-09T13:13:25;99634.59;;;24.86;90.21
60611;BME280;46439;51.164;13.572;2022-09-09T13:15:57;99633.91;;;24.84;90.15
60611;BME280;46439;51.164;13.572;2022-09-09T13:18:30;99631.85;;;24.79;89.79
60611;BME280;46439;51.164;13.572;2022-09-09T13:21:05;99627.72;;;24.73;89.60